createdAt,value
2022-11-27T00:01:35.767Z,6.80
2022-11-27T00:04:04.036Z,6.80
2022-11-27T00:06:32.892Z,6.80
2022-11-27T00:09:05.738Z,6.70
2022-11-27T00:11:35.488Z,6.70
2022-11-27T00:14:03.534Z,6.70
2022-11-27T00:16:31.641Z,6.70
2022-11-27T00:19:00.328Z,6.60
2022-11-27T00:21:30.326Z,6.60
2022-11-27T00:24:00.315Z,6.60
2022-11-27T00:26:31.949Z,6.60
2022-11-27T00:29:04.070Z,6.60
2022-11-27T00:31:33.564Z,6.50
2022-11-27T00:34:03.164Z,6.50
2022-11-27T00:36:33.289Z,6.40
2022-11-27T00:39:01.606Z,6.50
2022-11-27T00:41:31.319Z,6.40
2022-11-27T00:43:59.902Z,6.40
2022-11-27T00:46:31.344Z,6.40
2022-11-27T00:49:00.774Z,6.40
2022-11-27T00:51:29.181Z,6.30
2022-11-27T00:53:57.818Z,6.30
2022-11-27T00:56:27.775Z,6.30
2022-11-27T00:58:56.430Z,6.30
2022-11-27T01:01:27.510Z,6.20
2022-11-27T01:03:58.426Z,6.20
2022-11-27T01:06:27.329Z,6.20
2022-11-27T01:08:55.818Z,6.20
2022-11-27T01:11:26.650Z,6.20
2022-11-27T01:13:56.418Z,6.20
2022-11-27T01:16:26.580Z,6.20
2022-11-27T01:18:58.184Z,6.10
2022-11-27T01:21:28.358Z,6.10
2022-11-27T01:23:57.068Z,6.10
2022-11-27T01:26:25.556Z,6.10
2022-11-27T01:28:54.520Z,6.00
2022-11-27T01:31:27.932Z,6.00
2022-11-27T01:33:59.295Z,6.00
2022-11-27T01:36:28.110Z,6.00
2022-11-27T01:38:56.142Z,5.90
2022-11-27T01:41:27.446Z,5.90
2022-11-27T01:43:57.178Z,5.90
2022-11-27T01:46:38.681Z,5.90
2022-11-27T01:49:25.908Z,5.90
2022-11-27T01:52:00.314Z,5.90
2022-11-27T01:54:33.098Z,5.90
2022-11-27T01:57:08.258Z,5.80
2022-11-27T01:59:36.650Z,5.90
2022-11-27T02:02:05.245Z,5.90
2022-11-27T02:04:34.667Z,5.90
2022-11-27T02:07:02.779Z,5.80
2022-11-27T02:09:31.597Z,5.80
2022-11-27T02:12:07.273Z,5.80
2022-11-27T02:14:44.526Z,5.70
2022-11-27T02:17:21.159Z,5.70
2022-11-27T02:20:14.219Z,5.70
2022-11-27T02:23:11.880Z,5.70
2022-11-27T02:25:52.787Z,5.70
2022-11-27T02:28:36.176Z,5.60
2022-11-27T02:31:11.509Z,5.60
2022-11-27T02:33:45.154Z,5.60
2022-11-27T02:36:17.479Z,5.60
2022-11-27T02:38:48.947Z,5.50
2022-11-27T02:41:22.700Z,5.60
2022-11-27T02:43:52.878Z,5.50
2022-11-27T02:46:23.191Z,5.50
2022-11-27T02:48:56.245Z,5.50
2022-11-27T02:51:28.818Z,5.50
2022-11-27T02:54:00.748Z,5.50
2022-11-27T02:56:30.918Z,5.50
2022-11-27T02:59:02.283Z,5.50
2022-11-27T03:01:37.732Z,5.50
2022-11-27T03:04:09.224Z,5.40
2022-11-27T03:06:43.907Z,5.50
2022-11-27T03:09:15.767Z,5.50
2022-11-27T03:11:44.396Z,5.40
2022-11-27T03:14:14.234Z,5.40
2022-11-27T03:16:50.651Z,5.40
2022-11-27T03:19:23.866Z,5.40
2022-11-27T03:21:55.164Z,5.40
2022-11-27T03:24:23.704Z,5.40
2022-11-27T03:26:52.141Z,5.40
2022-11-27T03:29:24.513Z,5.40
2022-11-27T03:31:54.366Z,5.40
2022-11-27T03:34:22.583Z,5.30
2022-11-27T03:36:50.777Z,5.30
2022-11-27T03:39:21.992Z,5.30
2022-11-27T03:41:56.210Z,5.30
2022-11-27T03:44:30.941Z,5.30
2022-11-27T03:47:11.623Z,5.30
2022-11-27T03:49:55.947Z,5.20
2022-11-27T03:52:29.064Z,5.20
2022-11-27T03:55:06.241Z,5.20
2022-11-27T03:57:39.197Z,5.20
2022-11-27T04:00:09.583Z,5.20
2022-11-27T04:02:44.817Z,5.20
2022-11-27T04:05:16.188Z,5.20
2022-11-27T04:07:44.570Z,5.10
2022-11-27T04:10:13.696Z,5.20
2022-11-27T04:12:41.696Z,5.20
2022-11-27T04:15:10.322Z,5.10
2022-11-27T04:17:38.339Z,5.10
2022-11-27T04:20:09.593Z,5.10
2022-11-27T04:22:37.600Z,5.10
2022-11-27T04:25:06.446Z,5.10
2022-11-27T04:27:34.467Z,5.10
2022-11-27T04:30:02.447Z,5.10
2022-11-27T04:32:30.435Z,5.10
2022-11-27T04:34:58.429Z,5.20
2022-11-27T04:37:27.821Z,5.10
2022-11-27T04:39:55.789Z,5.20
2022-11-27T04:42:24.018Z,5.10
2022-11-27T04:44:52.030Z,5.10
2022-11-27T04:47:20.254Z,5.10
2022-11-27T04:49:48.252Z,5.10
2022-11-27T04:52:16.240Z,5.10
2022-11-27T04:54:45.593Z,5.10
2022-11-27T04:57:13.570Z,5.00
2022-11-27T04:59:41.627Z,5.00
2022-11-27T05:02:09.611Z,5.00
2022-11-27T05:04:37.824Z,4.90
2022-11-27T05:07:05.912Z,4.90
2022-11-27T05:09:34.054Z,4.90
2022-11-27T05:12:03.395Z,4.90
2022-11-27T05:14:31.618Z,4.90
2022-11-27T05:17:01.030Z,4.90
2022-11-27T05:19:30.908Z,4.90
2022-11-27T05:21:59.651Z,4.80
2022-11-27T05:24:29.052Z,4.80
2022-11-27T05:26:57.841Z,4.80
2022-11-27T05:29:27.638Z,4.80
2022-11-27T05:31:55.814Z,4.80
2022-11-27T05:34:23.999Z,4.80
2022-11-27T05:36:52.263Z,4.80
2022-11-27T05:39:20.254Z,4.80
2022-11-27T05:41:48.218Z,4.80
2022-11-27T05:44:16.568Z,4.70
2022-11-27T05:46:45.996Z,4.70
2022-11-27T05:49:15.917Z,4.70
2022-11-27T05:51:50.442Z,4.70
2022-11-27T05:54:19.372Z,4.70
2022-11-27T05:56:47.385Z,4.70
2022-11-27T05:59:15.707Z,4.70
2022-11-27T06:01:45.339Z,4.70
2022-11-27T06:04:13.401Z,4.60
2022-11-27T06:06:41.387Z,4.60
2022-11-27T06:09:13.021Z,4.60
2022-11-27T06:11:41.639Z,4.60
2022-11-27T06:14:10.049Z,4.60
2022-11-27T06:16:38.731Z,4.60
2022-11-27T06:19:09.194Z,4.60
2022-11-27T06:21:37.734Z,4.60
2022-11-27T06:24:06.180Z,4.50
2022-11-27T06:26:35.070Z,4.50
2022-11-27T06:29:03.196Z,4.40
2022-11-27T06:31:32.770Z,4.40
2022-11-27T06:34:01.428Z,4.40
2022-11-27T06:36:32.270Z,4.40
2022-11-27T06:39:00.443Z,4.50
2022-11-27T06:41:29.034Z,4.40
2022-11-27T06:43:59.150Z,4.40
2022-11-27T06:46:27.764Z,4.50
2022-11-27T06:48:56.465Z,4.40
2022-11-27T06:51:26.502Z,4.40
2022-11-27T06:53:56.263Z,4.40
2022-11-27T06:56:25.971Z,4.40
2022-11-27T06:58:55.462Z,4.40
2022-11-27T07:01:25.178Z,4.40
2022-11-27T07:03:53.253Z,4.40
2022-11-27T07:06:23.142Z,4.40
2022-11-27T07:08:51.141Z,4.40
2022-11-27T07:11:23.132Z,4.40
2022-11-27T07:13:51.810Z,4.40
2022-11-27T07:16:20.140Z,4.30
2022-11-27T07:18:50.131Z,4.30
2022-11-27T07:21:18.861Z,4.30
2022-11-27T07:23:47.270Z,4.30
2022-11-27T07:26:17.067Z,4.30
2022-11-27T07:28:46.935Z,4.20
2022-11-27T07:31:16.547Z,4.20
2022-11-27T07:33:44.950Z,4.20
2022-11-27T07:36:16.164Z,4.20
2022-11-27T07:38:44.819Z,4.20
2022-11-27T07:41:13.457Z,4.20
2022-11-27T07:43:42.140Z,4.20
2022-11-27T07:46:13.674Z,4.10
2022-11-27T07:48:41.775Z,4.20
2022-11-27T07:51:11.453Z,4.10
2022-11-27T07:53:40.700Z,4.10
2022-11-27T07:56:10.363Z,4.10
2022-11-27T07:58:38.511Z,4.20
2022-11-27T08:01:09.091Z,4.10
2022-11-27T08:03:38.668Z,4.10
2022-11-27T08:06:14.178Z,4.10
2022-11-27T08:08:42.156Z,4.10
2022-11-27T08:11:20.495Z,4.10
2022-11-27T08:13:48.674Z,4.00
2022-11-27T08:16:17.120Z,4.00
2022-11-27T08:18:46.562Z,4.00
2022-11-27T08:21:14.697Z,4.00
2022-11-27T08:23:42.760Z,4.00
2022-11-27T08:26:11.917Z,4.00
2022-11-27T08:28:40.782Z,4.00
2022-11-27T08:31:11.473Z,4.00
2022-11-27T08:33:39.837Z,4.00
2022-11-27T08:36:14.981Z,4.00
2022-11-27T08:38:45.733Z,4.00
2022-11-27T08:41:13.734Z,4.00
2022-11-27T08:43:41.692Z,4.10
2022-11-27T08:46:10.528Z,4.10
2022-11-27T08:48:38.538Z,4.10
2022-11-27T08:51:10.133Z,4.20
2022-11-27T08:53:38.697Z,4.20
2022-11-27T08:56:08.191Z,4.20
2022-11-27T08:58:36.286Z,4.20
2022-11-27T09:01:09.835Z,4.20
2022-11-27T09:03:37.925Z,4.20
2022-11-27T09:06:10.293Z,4.20
2022-11-27T09:08:38.799Z,4.20
2022-11-27T09:11:07.403Z,4.20
2022-11-27T09:13:36.926Z,4.20
2022-11-27T09:16:06.068Z,4.20
2022-11-27T09:18:34.410Z,4.20
2022-11-27T09:21:04.421Z,4.20
2022-11-27T09:23:33.935Z,4.20
2022-11-27T09:26:02.759Z,4.20
2022-11-27T09:28:31.834Z,4.20
2022-11-27T09:31:02.070Z,4.20
2022-11-27T09:33:32.593Z,4.20
2022-11-27T09:36:04.930Z,4.20
2022-11-27T09:38:34.363Z,4.20
2022-11-27T09:41:13.964Z,4.20
2022-11-27T09:43:45.911Z,4.30
2022-11-27T09:46:22.105Z,4.30
2022-11-27T09:48:51.913Z,4.30
2022-11-27T09:51:26.396Z,4.30
2022-11-27T09:54:01.567Z,4.30
2022-11-27T09:56:31.010Z,4.30
2022-11-27T09:59:01.002Z,4.40
2022-11-27T10:01:40.423Z,4.40
2022-11-27T10:04:15.265Z,4.40
2022-11-27T10:06:58.571Z,4.50
2022-11-27T10:09:36.647Z,4.50
2022-11-27T10:12:11.823Z,4.50
2022-11-27T10:14:51.797Z,4.60
2022-11-27T10:17:23.948Z,4.60
2022-11-27T10:19:59.046Z,4.70
2022-11-27T10:22:34.924Z,4.70
2022-11-27T10:25:17.129Z,4.80
2022-11-27T10:27:52.949Z,4.80
2022-11-27T10:30:22.737Z,4.80
2022-11-27T10:32:56.182Z,4.80
2022-11-27T10:35:26.288Z,4.80
2022-11-27T10:37:59.769Z,4.90
2022-11-27T10:40:38.362Z,4.90
2022-11-27T10:43:12.726Z,4.90
2022-11-27T10:45:47.023Z,5.00
2022-11-27T10:48:15.687Z,5.00
2022-11-27T10:50:45.232Z,5.00
2022-11-27T10:53:19.392Z,5.10
2022-11-27T10:56:01.108Z,5.10
2022-11-27T10:58:34.962Z,5.10
2022-11-27T11:01:04.777Z,5.10
2022-11-27T11:03:32.941Z,5.10
2022-11-27T11:06:20.012Z,5.10
2022-11-27T11:08:49.584Z,5.10
2022-11-27T11:11:28.243Z,5.10
2022-11-27T11:13:56.751Z,5.10
2022-11-27T11:16:33.379Z,5.10
2022-11-27T11:19:03.393Z,5.10
2022-11-27T11:21:33.827Z,5.20
2022-11-27T11:24:03.649Z,5.20
2022-11-27T11:26:35.329Z,5.20
2022-11-27T11:29:07.028Z,5.20
2022-11-27T11:31:37.900Z,5.30
2022-11-27T11:34:19.349Z,5.30
2022-11-27T11:36:57.083Z,5.30
2022-11-27T11:39:26.902Z,5.30
2022-11-27T11:41:56.941Z,5.30
2022-11-27T11:44:32.073Z,5.30
2022-11-27T11:47:00.097Z,5.40
2022-11-27T11:49:30.480Z,5.40
2022-11-27T11:52:21.884Z,5.40
2022-11-27T11:54:58.729Z,5.40
2022-11-27T11:58:19.866Z,5.40
2022-11-27T12:01:25.864Z,5.50
2022-11-27T12:04:01.723Z,5.40
2022-11-27T12:06:55.813Z,5.50
2022-11-27T12:09:34.849Z,5.50
2022-11-27T12:12:12.597Z,5.50
2022-11-27T12:14:47.758Z,5.60
2022-11-27T12:17:29.067Z,5.50
2022-11-27T12:20:14.223Z,5.60
2022-11-27T12:23:12.645Z,5.60
2022-11-27T12:25:47.644Z,5.60
2022-11-27T12:28:52.136Z,5.60
2022-11-27T12:31:38.126Z,5.60
2022-11-27T12:34:09.381Z,5.60
2022-11-27T12:36:55.063Z,5.70
2022-11-27T12:39:26.752Z,5.70
2022-11-27T12:42:01.787Z,5.70
2022-11-27T12:44:37.807Z,5.70
2022-11-27T12:47:12.988Z,5.70
2022-11-27T12:49:43.804Z,5.70
2022-11-27T12:52:18.363Z,5.70
2022-11-27T12:54:51.350Z,5.70
2022-11-27T12:57:24.119Z,5.70
2022-11-27T12:59:58.456Z,5.70
2022-11-27T13:02:34.983Z,5.70
2022-11-27T13:05:07.027Z,5.70
2022-11-27T13:07:41.495Z,5.80
2022-11-27T13:10:23.780Z,5.80
2022-11-27T13:13:00.855Z,5.80
2022-11-27T13:15:34.226Z,5.80
2022-11-27T13:18:11.897Z,5.80
2022-11-27T13:20:41.839Z,5.80
2022-11-27T13:23:09.859Z,5.80
2022-11-27T13:25:44.867Z,5.80
2022-11-27T13:28:23.087Z,5.80
2022-11-27T13:30:52.991Z,5.80
2022-11-27T13:33:39.385Z,5.80
2022-11-27T13:36:18.874Z,5.80
2022-11-27T13:38:52.764Z,5.80
2022-11-27T13:41:29.348Z,5.80
2022-11-27T13:43:57.883Z,5.80
2022-11-27T13:46:28.458Z,5.80
2022-11-27T13:49:02.620Z,5.80
2022-11-27T13:51:33.208Z,5.80
2022-11-27T13:54:12.917Z,5.80
2022-11-27T13:56:41.813Z,5.80
2022-11-27T13:59:17.902Z,5.80
2022-11-27T14:01:58.145Z,5.80
2022-11-27T14:04:28.590Z,5.80
2022-11-27T14:07:03.190Z,5.80
2022-11-27T14:09:38.256Z,5.80
2022-11-27T14:12:17.769Z,5.80
2022-11-27T14:14:57.692Z,5.80
2022-11-27T14:17:33.883Z,5.80
2022-11-27T14:20:07.487Z,5.80
2022-11-27T14:23:07.534Z,5.80
2022-11-27T14:25:36.331Z,5.80
2022-11-27T14:28:14.145Z,5.80
2022-11-27T14:30:47.296Z,5.80
2022-11-27T14:33:20.269Z,5.80
2022-11-27T14:35:55.068Z,5.80
2022-11-27T14:38:24.123Z,5.80
2022-11-27T14:40:54.315Z,5.80
2022-11-27T14:43:25.981Z,5.80
2022-11-27T14:45:55.928Z,5.80
2022-11-27T14:48:26.292Z,5.80
2022-11-27T14:50:56.935Z,5.80
2022-11-27T14:53:27.387Z,5.80
2022-11-27T14:55:58.595Z,5.80
2022-11-27T14:58:28.576Z,5.80
2022-11-27T15:01:00.252Z,5.80
2022-11-27T15:03:28.814Z,5.80
2022-11-27T15:06:00.382Z,5.80
2022-11-27T15:08:29.735Z,5.80
2022-11-27T15:11:00.035Z,5.70
2022-11-27T15:13:30.097Z,5.80
2022-11-27T15:16:03.437Z,5.70
2022-11-27T15:18:33.822Z,5.70
2022-11-27T15:21:09.911Z,5.70
2022-11-27T15:23:38.435Z,5.80
2022-11-27T15:26:15.866Z,5.80
2022-11-27T15:28:52.454Z,5.90
2022-11-27T15:31:33.956Z,5.80
2022-11-27T15:34:04.881Z,5.80
2022-11-27T15:36:40.000Z,5.80
2022-11-27T15:39:21.574Z,5.70
2022-11-27T15:41:58.031Z,5.80
2022-11-27T15:44:28.140Z,5.70
2022-11-27T15:46:58.025Z,5.70
2022-11-27T15:49:26.548Z,5.70
2022-11-27T15:51:56.291Z,5.70
2022-11-27T15:54:24.940Z,5.70
2022-11-27T15:56:53.384Z,5.70
2022-11-27T15:59:21.535Z,5.70
2022-11-27T16:01:50.324Z,5.60
2022-11-27T16:04:22.384Z,5.70
2022-11-27T16:06:50.463Z,5.60
2022-11-27T16:09:19.855Z,5.60
2022-11-27T16:11:47.862Z,5.60
2022-11-27T16:14:16.079Z,5.60
2022-11-27T16:16:44.157Z,5.60
2022-11-27T16:19:12.396Z,5.60
2022-11-27T16:21:40.554Z,5.60
2022-11-27T16:24:11.734Z,5.60
2022-11-27T16:26:41.931Z,5.60
2022-11-27T16:29:11.518Z,5.60
2022-11-27T16:31:39.535Z,5.60
2022-11-27T16:34:07.575Z,5.60
2022-11-27T16:36:35.799Z,5.60
2022-11-27T16:39:03.780Z,5.60
2022-11-27T16:41:31.823Z,5.60
2022-11-27T16:44:01.251Z,5.60
2022-11-27T16:46:31.126Z,5.60
2022-11-27T16:49:01.395Z,5.50
2022-11-27T16:51:31.268Z,5.60
2022-11-27T16:54:00.355Z,5.60
2022-11-27T16:56:29.975Z,5.60
2022-11-27T16:59:02.828Z,5.60
2022-11-27T17:01:36.050Z,5.60
2022-11-27T17:04:05.115Z,5.60
2022-11-27T17:06:34.234Z,5.60
2022-11-27T17:09:05.310Z,5.60
2022-11-27T17:11:35.809Z,5.60
2022-11-27T17:14:06.675Z,5.60
2022-11-27T17:16:37.126Z,5.60
2022-11-27T17:19:05.824Z,5.60
2022-11-27T17:21:35.692Z,5.60
2022-11-27T17:24:14.340Z,5.60
2022-11-27T17:26:43.950Z,5.60
2022-11-27T17:29:12.637Z,5.60
2022-11-27T17:31:42.524Z,5.60
2022-11-27T17:34:13.645Z,5.60
2022-11-27T17:36:44.007Z,5.60
2022-11-27T17:39:13.851Z,5.60
2022-11-27T17:41:44.468Z,5.60
2022-11-27T17:44:13.099Z,5.60
2022-11-27T17:46:45.000Z,5.60
2022-11-27T17:49:12.993Z,5.60
2022-11-27T17:51:41.306Z,5.70
2022-11-27T17:54:09.341Z,5.60
2022-11-27T17:56:37.316Z,5.60
2022-11-27T17:59:05.845Z,5.60
2022-11-27T18:01:34.707Z,5.60
2022-11-27T18:04:05.480Z,5.60
2022-11-27T18:06:34.448Z,5.60
2022-11-27T18:09:02.560Z,5.60
2022-11-27T18:11:33.720Z,5.60
2022-11-27T18:14:01.996Z,5.60
2022-11-27T18:16:32.324Z,5.60
2022-11-27T18:19:03.207Z,5.60
2022-11-27T18:21:32.676Z,5.60
2022-11-27T18:24:22.539Z,5.60
2022-11-27T18:29:38.223Z,5.60
2022-11-27T18:32:07.026Z,5.50
2022-11-27T18:34:35.380Z,5.60
2022-11-27T18:37:04.962Z,5.50
2022-11-27T18:39:33.258Z,5.50
2022-11-27T18:42:01.382Z,5.50
2022-11-27T18:44:29.403Z,5.50
2022-11-27T18:46:57.720Z,5.50
2022-11-27T18:49:26.027Z,5.50
2022-11-27T18:51:55.131Z,5.50
2022-11-27T18:54:25.007Z,5.50
2022-11-27T18:56:53.044Z,5.50
2022-11-27T18:59:21.017Z,5.50
2022-11-27T19:01:49.168Z,5.50
2022-11-27T19:04:17.370Z,5.50
2022-11-27T19:06:45.377Z,5.50
2022-11-27T19:09:14.185Z,5.50
2022-11-27T19:11:43.775Z,5.50
2022-11-27T19:14:12.284Z,5.50
2022-11-27T19:16:46.039Z,5.50
2022-11-27T19:19:52.856Z,5.50
2022-11-27T19:22:04.304Z,5.50
2022-11-27T19:24:32.344Z,5.40
2022-11-27T19:27:01.761Z,5.40
2022-11-27T19:29:29.894Z,5.40
2022-11-27T19:31:58.965Z,5.40
2022-11-27T19:34:27.136Z,5.50
2022-11-27T19:36:56.293Z,5.40
2022-11-27T19:39:24.279Z,5.40
2022-11-27T19:41:52.353Z,5.50
2022-11-27T19:44:21.791Z,5.40
2022-11-27T19:46:49.773Z,5.40
2022-11-27T19:49:19.191Z,5.40
2022-11-27T19:51:47.692Z,5.40
2022-11-27T19:54:19.081Z,5.40
2022-11-27T19:56:47.187Z,5.40
2022-11-27T19:59:15.249Z,5.40
2022-11-27T20:01:44.730Z,5.40
2022-11-27T20:04:15.039Z,5.40
2022-11-27T20:06:47.406Z,5.40
2022-11-27T20:09:16.248Z,5.40
2022-11-27T20:11:44.347Z,5.40
2022-11-27T20:14:12.707Z,5.40
2022-11-27T20:16:40.919Z,5.40
2022-11-27T20:19:10.426Z,5.40
2022-11-27T20:21:40.077Z,5.40
2022-11-27T20:24:08.237Z,5.40
2022-11-27T20:26:41.319Z,5.40
2022-11-27T20:29:10.864Z,5.40
2022-11-27T20:31:40.735Z,5.40
2022-11-27T20:34:16.256Z,5.40
2022-11-27T20:36:44.309Z,5.40
2022-11-27T20:39:16.300Z,5.40
2022-11-27T20:41:47.447Z,5.40
2022-11-27T20:44:16.512Z,5.40
2022-11-27T20:46:44.665Z,5.40
2022-11-27T20:49:14.194Z,5.40
2022-11-27T20:51:42.336Z,5.40
2022-11-27T20:54:11.897Z,5.40
2022-11-27T20:56:40.900Z,5.40
2022-11-27T20:59:08.938Z,5.40
2022-11-27T21:01:38.552Z,5.40
2022-11-27T21:04:20.880Z,5.40
2022-11-27T21:06:50.662Z,5.40
2022-11-27T21:09:18.945Z,5.40
2022-11-27T21:11:47.430Z,5.40
2022-11-27T21:14:17.192Z,5.40
2022-11-27T21:16:48.630Z,5.40
2022-11-27T21:19:19.880Z,5.40
2022-11-27T21:21:48.111Z,5.40
2022-11-27T21:24:18.679Z,5.40
2022-11-27T21:26:47.045Z,5.40
2022-11-27T21:29:15.415Z,5.40
2022-11-27T21:31:47.280Z,5.40
2022-11-27T21:34:16.629Z,5.40
2022-11-27T21:36:44.640Z,5.40
2022-11-27T21:39:19.887Z,5.40
2022-11-27T21:41:52.444Z,5.40
2022-11-27T21:44:20.703Z,5.40
2022-11-27T21:46:49.255Z,5.40
2022-11-27T21:49:18.190Z,5.40
2022-11-27T21:51:46.272Z,5.40
2022-11-27T21:54:15.927Z,5.40
2022-11-27T21:56:44.079Z,5.40
2022-11-27T21:59:15.438Z,5.40
2022-11-27T22:01:46.536Z,5.40
2022-11-27T22:04:14.985Z,5.40
2022-11-27T22:06:45.098Z,5.40
2022-11-27T22:09:15.617Z,5.40
2022-11-27T22:11:45.735Z,5.40
2022-11-27T22:14:16.973Z,5.40
2022-11-27T22:16:46.925Z,5.40
2022-11-27T22:19:15.782Z,5.40
2022-11-27T22:21:44.839Z,5.40
2022-11-27T22:24:18.468Z,5.40
2022-11-27T22:26:47.385Z,5.40
2022-11-27T22:29:16.897Z,5.40
2022-11-27T22:31:44.911Z,5.40
2022-11-27T22:34:12.872Z,5.40
2022-11-27T22:36:40.955Z,5.40
2022-11-27T22:39:09.743Z,5.40
2022-11-27T22:41:39.293Z,5.40
2022-11-27T22:44:08.068Z,5.40
2022-11-27T22:46:38.157Z,5.40
2022-11-27T22:49:07.955Z,5.40
2022-11-27T22:51:37.216Z,5.40
2022-11-27T22:54:07.474Z,5.40
2022-11-27T22:56:36.235Z,5.40
2022-11-27T22:59:31.210Z,5.40
2022-11-27T23:01:55.446Z,5.40
2022-11-27T23:04:23.454Z,5.50
2022-11-27T23:06:51.507Z,5.40
2022-11-27T23:09:19.866Z,5.40
2022-11-27T23:11:48.075Z,5.50
2022-11-27T23:14:16.376Z,5.40
2022-11-27T23:16:44.831Z,5.40
2022-11-27T23:19:14.262Z,5.50
2022-11-27T23:21:42.348Z,5.50
2022-11-27T23:24:13.744Z,5.50
2022-11-27T23:26:41.857Z,5.50
2022-11-27T23:29:10.448Z,5.50
2022-11-27T23:31:39.271Z,5.50
2022-11-27T23:34:09.420Z,5.50
2022-11-27T23:36:38.939Z,5.50
2022-11-27T23:39:09.172Z,5.50
2022-11-27T23:41:37.326Z,5.50
2022-11-27T23:44:05.405Z,5.50
2022-11-27T23:46:33.493Z,5.50
2022-11-27T23:49:01.769Z,5.50
2022-11-27T23:51:31.557Z,5.50
2022-11-27T23:54:01.950Z,5.50
2022-11-27T23:56:31.916Z,5.50
2022-11-27T23:59:00.676Z,5.50
